createdAt,value
2023-08-05T00:00:37.189Z,21.58
2023-08-05T00:03:11.122Z,21.55
2023-08-05T00:05:44.910Z,21.48
2023-08-05T00:08:20.781Z,21.42
2023-08-05T00:10:54.796Z,21.38
2023-08-05T00:13:28.274Z,21.34
2023-08-05T00:16:01.753Z,21.29
2023-08-05T00:18:36.389Z,21.21
2023-08-05T00:21:10.309Z,21.18
2023-08-05T00:23:46.603Z,21.13
2023-08-05T00:26:34.188Z,21.19
2023-08-05T00:29:08.768Z,21.01
2023-08-05T00:32:32.106Z,20.95
2023-08-05T02:08:55.065Z,20.01
2023-08-05T02:15:26.635Z,19.95
2023-08-05T02:18:00.619Z,20.00
2023-08-05T02:20:34.901Z,20.05
2023-08-05T02:23:11.476Z,20.07
2023-08-05T02:26:21.580Z,20.24
2023-08-05T02:29:11.815Z,20.24
2023-08-05T02:31:52.285Z,20.12
2023-08-05T02:34:44.705Z,20.28
2023-08-05T02:37:38.484Z,20.28
2023-08-05T02:40:33.462Z,20.29
2023-08-05T02:43:10.501Z,20.18
2023-08-05T02:46:07.491Z,20.32
2023-08-05T05:47:49.250Z,24.03
2023-08-05T05:50:36.147Z,23.95
2023-08-05T05:53:40.580Z,24.17
2023-08-05T05:56:42.681Z,24.22
2023-08-05T05:59:16.601Z,24.09
2023-08-05T06:01:50.062Z,24.16
2023-08-05T06:04:25.538Z,24.20
2023-08-05T06:07:03.498Z,24.21
2023-08-05T06:09:51.049Z,24.39
2023-08-05T06:12:28.985Z,24.28
2023-08-05T06:15:16.501Z,24.46
2023-08-05T06:17:51.020Z,24.35
2023-08-05T06:20:41.242Z,24.61
2023-08-05T06:23:14.781Z,24.54
2023-08-05T06:25:48.844Z,24.59
2023-08-05T06:28:22.547Z,24.63
2023-08-05T06:30:58.325Z,24.71
2023-08-05T06:33:31.907Z,24.77
2023-08-05T06:36:05.748Z,24.86
2023-08-05T06:38:39.420Z,24.91
2023-08-05T06:41:12.914Z,24.95
2023-08-05T06:43:48.016Z,24.88
2023-08-05T06:46:35.948Z,25.20
2023-08-05T06:49:10.832Z,25.10
2023-08-05T06:51:44.563Z,25.14
2023-08-05T06:54:18.126Z,25.22
2023-08-05T06:56:52.889Z,25.50
2023-08-05T06:59:28.201Z,26.14
2023-08-05T07:02:03.296Z,27.14
2023-08-05T07:04:37.774Z,28.39
2023-08-05T07:07:11.546Z,30.22
2023-08-05T07:09:45.066Z,31.48
2023-08-05T07:12:18.896Z,32.49
2023-08-05T07:14:53.166Z,33.36
2023-08-05T07:17:27.655Z,33.89
2023-08-05T07:20:15.909Z,34.37
2023-08-05T07:22:49.577Z,34.64
2023-08-05T07:25:23.213Z,34.84
2023-08-05T07:27:57.604Z,35.11
2023-08-05T07:30:31.573Z,35.68
2023-08-05T07:33:05.997Z,35.81
2023-08-05T07:35:40.334Z,36.28
2023-08-05T07:38:13.860Z,37.50
2023-08-05T07:41:03.629Z,38.50
2023-08-05T07:46:34.990Z,36.19
2023-08-05T07:49:09.657Z,35.80
2023-08-05T07:51:53.322Z,36.82
2023-08-05T07:57:44.793Z,36.29
2023-08-05T08:00:18.911Z,35.90
2023-08-05T08:03:00.158Z,35.03
2023-08-05T08:05:48.333Z,35.57
2023-08-05T08:08:24.251Z,36.21
2023-08-05T08:11:17.816Z,35.31
2023-08-05T08:14:05.969Z,35.47
2023-08-05T08:16:39.480Z,34.60
2023-08-05T08:19:14.740Z,33.75
2023-08-05T08:21:48.632Z,34.29
2023-08-05T08:24:28.126Z,34.90
2023-08-05T08:27:01.519Z,35.21
2023-08-05T08:29:35.596Z,36.60
2023-08-05T08:32:23.640Z,36.81
2023-08-05T08:34:57.752Z,35.95
2023-08-05T08:37:45.759Z,36.34
2023-08-05T08:40:37.147Z,38.06
2023-08-05T09:13:51.528Z,37.49
2023-08-05T09:33:16.634Z,36.22
2023-08-05T09:35:54.346Z,37.60
2023-08-05T09:38:29.571Z,38.29
2023-08-05T09:41:18.417Z,39.57
2023-08-05T09:44:06.826Z,39.04
2023-08-05T09:47:01.349Z,39.73
2023-08-05T09:49:37.548Z,40.76
2023-08-05T09:52:25.804Z,42.14
2023-08-05T09:55:02.442Z,40.25
2023-08-05T09:57:38.204Z,38.88
2023-08-05T10:00:15.332Z,40.27
2023-08-05T10:02:49.108Z,41.42
2023-08-05T10:05:31.752Z,41.83
2023-08-05T10:08:07.400Z,42.01
2023-08-05T10:11:33.647Z,42.51
2023-08-05T10:14:07.620Z,42.47
2023-08-05T10:16:41.451Z,43.02
2023-08-05T10:22:10.214Z,40.28
2023-08-05T10:24:58.666Z,38.44
2023-08-05T10:27:47.269Z,36.68
2023-08-05T10:30:21.060Z,37.80
2023-08-05T10:33:09.371Z,40.60
2023-08-05T10:36:03.645Z,42.79
2023-08-05T10:38:43.971Z,44.10
2023-08-05T10:41:38.418Z,44.48
2023-08-05T10:44:11.657Z,44.13
2023-08-05T10:46:44.994Z,44.46
2023-08-05T10:49:32.570Z,44.28
2023-08-05T10:52:06.545Z,43.95
2023-08-05T10:54:40.725Z,43.85
2023-08-05T10:57:49.101Z,43.93
2023-08-05T11:00:24.648Z,43.56
2023-08-05T11:03:35.121Z,44.11
2023-08-05T11:06:26.306Z,45.85
2023-08-05T11:09:02.875Z,46.35
2023-08-05T11:11:36.833Z,47.43
2023-08-05T11:14:27.309Z,47.35
2023-08-05T11:17:07.099Z,46.75
2023-08-05T11:19:55.765Z,46.80
2023-08-05T11:22:30.312Z,46.46
2023-08-05T11:25:20.296Z,46.32
2023-08-05T11:28:11.027Z,46.87
2023-08-05T11:30:59.385Z,47.08
2023-08-05T11:33:32.779Z,46.46
2023-08-05T11:36:21.718Z,46.67
2023-08-05T11:38:57.213Z,47.06
2023-08-05T11:41:31.853Z,46.56
2023-08-05T11:44:21.382Z,46.36
2023-08-05T11:47:10.097Z,46.93
2023-08-05T11:49:57.889Z,46.73
2023-08-05T11:52:33.962Z,46.04
2023-08-05T11:55:10.192Z,46.67
2023-08-05T11:58:07.317Z,45.03
2023-08-05T12:00:57.397Z,44.05
2023-08-05T12:03:45.167Z,42.65
2023-08-05T12:06:20.693Z,41.05
2023-08-05T12:09:13.022Z,39.82
2023-08-05T12:11:51.710Z,40.45
2023-08-05T12:14:43.747Z,41.55
2023-08-05T13:10:48.456Z,41.61
2023-08-05T13:16:26.236Z,42.02
2023-08-05T13:19:00.106Z,41.19
2023-08-05T13:22:10.676Z,40.12
2023-08-05T13:25:11.969Z,39.76
2023-08-05T13:28:04.438Z,40.61
2023-08-05T13:31:12.287Z,41.47
2023-08-05T13:34:26.194Z,41.24
2023-08-05T13:37:31.531Z,42.05
2023-08-05T13:40:15.766Z,42.21
2023-08-05T13:43:36.708Z,40.85
2023-08-05T13:46:43.669Z,39.20
2023-08-05T13:49:39.580Z,37.77
2023-08-05T13:52:14.154Z,38.25
2023-08-05T13:55:03.850Z,38.27
2023-08-05T13:57:37.678Z,37.32
2023-08-05T14:00:29.083Z,36.70
2023-08-05T14:03:02.803Z,36.10
2023-08-05T14:05:38.019Z,35.80
2023-08-05T14:08:11.766Z,35.69
2023-08-05T14:10:50.251Z,36.98
2023-08-05T14:13:24.201Z,38.56
2023-08-05T14:16:12.150Z,39.77
2023-08-05T14:18:45.889Z,39.27
2023-08-05T14:21:19.897Z,38.46
2023-08-05T14:24:08.130Z,38.92
2023-08-05T14:26:42.203Z,39.83
2023-08-05T14:29:30.391Z,41.01
2023-08-05T14:32:04.238Z,41.71
2023-08-05T14:35:02.732Z,42.22
2023-08-05T14:37:42.866Z,41.90
2023-08-05T14:40:17.193Z,41.17
2023-08-05T14:42:51.184Z,40.95
2023-08-05T14:45:42.216Z,41.60
2023-08-05T14:48:33.420Z,40.92
2023-08-05T14:51:26.107Z,40.13
2023-08-05T14:54:01.682Z,39.89
2023-08-05T14:56:49.528Z,40.07
2023-08-05T14:59:40.768Z,39.27
2023-08-05T15:02:14.433Z,38.81
2023-08-05T15:04:48.140Z,38.93
2023-08-05T15:07:36.158Z,38.91
2023-08-05T15:10:11.731Z,38.74
2023-08-05T15:12:59.639Z,38.74
2023-08-05T15:15:33.343Z,38.70
2023-08-05T15:18:07.674Z,38.63
2023-08-05T15:20:41.472Z,38.33
2023-08-05T15:23:29.396Z,38.38
2023-08-05T15:26:09.946Z,38.62
2023-08-05T15:28:57.884Z,38.61
2023-08-05T15:31:31.761Z,38.55
2023-08-05T15:34:05.488Z,38.30
2023-08-05T15:36:43.342Z,37.56
2023-08-05T15:39:32.525Z,36.94
2023-08-05T15:42:07.052Z,36.38
2023-08-05T15:44:41.068Z,36.51
2023-08-05T15:47:28.833Z,36.63
2023-08-05T15:50:02.775Z,36.34
2023-08-05T15:52:51.775Z,36.19
2023-08-05T15:55:25.764Z,35.94
2023-08-05T15:58:01.138Z,35.89
2023-08-05T16:00:34.707Z,35.86
2023-08-05T16:03:08.423Z,35.68
2023-08-05T16:05:43.633Z,35.51
2023-08-05T16:08:17.326Z,35.32
2023-08-05T16:10:52.317Z,35.17
2023-08-05T16:13:40.304Z,35.26
2023-08-05T16:16:16.631Z,35.05
2023-08-05T16:19:05.078Z,35.03
2023-08-05T16:21:38.938Z,34.76
2023-08-05T16:24:27.773Z,34.74
2023-08-05T16:27:15.439Z,34.60
2023-08-05T16:29:50.424Z,34.35
2023-08-05T16:32:27.086Z,34.20
2023-08-05T16:35:14.988Z,34.14
2023-08-05T16:37:48.970Z,33.83
2023-08-05T16:40:22.953Z,33.58
2023-08-05T16:43:10.725Z,33.43
2023-08-05T16:45:44.674Z,33.09
2023-08-05T16:48:35.474Z,32.98
2023-08-05T16:51:26.865Z,32.85
2023-08-05T16:54:21.190Z,32.68
2023-08-05T16:57:21.094Z,32.60
2023-08-05T16:59:54.709Z,32.38
2023-08-05T17:02:44.213Z,32.34
2023-08-05T17:05:17.894Z,32.09
2023-08-05T17:07:51.747Z,31.96
2023-08-05T17:10:26.082Z,31.82
2023-08-05T17:12:59.786Z,31.73
2023-08-05T17:15:54.106Z,31.75
2023-08-05T17:18:28.059Z,31.56
2023-08-05T17:21:02.586Z,31.47
2023-08-05T17:23:36.229Z,31.36
2023-08-05T17:26:10.232Z,31.26
2023-08-05T17:28:47.727Z,31.16
2023-08-05T17:31:22.908Z,31.06
2023-08-05T17:34:10.722Z,31.01
2023-08-05T17:36:58.728Z,30.86
2023-08-05T17:39:33.868Z,30.67
2023-08-05T17:42:09.041Z,30.59
2023-08-05T17:44:42.689Z,30.50
2023-08-05T17:47:32.635Z,30.49
2023-08-05T17:50:06.242Z,30.31
2023-08-05T17:52:39.784Z,30.23
2023-08-05T17:55:13.269Z,30.16
2023-08-05T17:58:02.195Z,30.20
2023-08-05T18:00:35.823Z,30.02
2023-08-05T18:03:09.450Z,29.95
2023-08-05T18:05:44.630Z,29.91
2023-08-05T18:08:36.914Z,29.96
2023-08-05T18:11:13.511Z,29.78
2023-08-05T18:14:01.230Z,29.80
2023-08-05T18:16:48.781Z,29.73
2023-08-05T18:19:22.364Z,29.56
2023-08-05T18:21:55.804Z,29.46
2023-08-05T18:24:29.445Z,29.40
2023-08-05T18:27:02.898Z,29.34
2023-08-05T18:29:52.095Z,29.42
2023-08-05T18:32:40.796Z,29.38
2023-08-05T18:35:16.402Z,29.16
2023-08-05T18:37:50.783Z,28.99
2023-08-05T18:40:40.350Z,28.97
2023-08-05T18:43:13.978Z,28.77
2023-08-05T18:45:49.340Z,28.68
2023-08-05T18:48:24.437Z,28.62
2023-08-05T18:50:57.924Z,28.56
2023-08-05T18:53:31.545Z,28.48
2023-08-05T18:56:10.517Z,28.42
2023-08-05T18:59:00.308Z,28.35
2023-08-05T19:01:33.959Z,28.18
2023-08-05T19:04:07.965Z,28.10
2023-08-05T19:06:41.615Z,28.03
2023-08-05T19:09:15.235Z,27.97
2023-08-05T19:12:02.859Z,27.97
2023-08-05T19:14:37.036Z,27.81
2023-08-05T19:17:10.695Z,27.77
2023-08-05T19:19:45.179Z,27.74
2023-08-05T19:22:18.770Z,27.70
2023-08-05T19:24:52.513Z,27.63
2023-08-05T19:27:31.808Z,27.50
2023-08-05T19:30:21.943Z,27.53
2023-08-05T19:32:57.451Z,27.37
2023-08-05T19:35:45.344Z,27.43
2023-08-05T19:38:19.135Z,27.31
2023-08-05T19:41:09.025Z,27.30
2023-08-05T19:43:43.327Z,27.23
2023-08-05T19:46:30.996Z,27.33
2023-08-05T19:49:06.451Z,27.17
2023-08-05T19:51:40.105Z,27.07
2023-08-05T19:54:19.318Z,27.04
2023-08-05T19:56:52.957Z,27.00
2023-08-05T19:59:26.743Z,26.97
2023-08-05T20:02:14.447Z,27.01
2023-08-05T20:05:02.091Z,26.95
2023-08-05T20:07:35.758Z,26.82
2023-08-05T20:10:23.400Z,26.91
2023-08-05T20:12:57.370Z,26.78
2023-08-05T20:15:45.773Z,26.87
2023-08-05T20:18:21.100Z,26.76
2023-08-05T20:21:09.672Z,26.85
2023-08-05T20:23:43.284Z,26.71
2023-08-05T20:26:18.453Z,26.67
2023-08-05T20:29:06.903Z,26.74
2023-08-05T20:31:46.742Z,26.57
2023-08-05T20:34:20.423Z,26.51
2023-08-05T20:37:21.371Z,26.55
2023-08-05T20:39:55.612Z,26.41
2023-08-05T20:42:44.074Z,26.48
2023-08-05T20:45:19.355Z,26.29
2023-08-05T20:47:55.109Z,26.20
2023-08-05T20:50:31.167Z,26.09
2023-08-05T20:53:06.906Z,25.93
2023-08-05T20:55:40.781Z,25.78
2023-08-05T20:58:28.633Z,25.79
2023-08-05T21:01:06.081Z,25.58
2023-08-05T21:03:39.906Z,25.54
2023-08-05T21:06:13.891Z,25.48
2023-08-05T21:08:48.480Z,25.42
2023-08-05T21:11:23.330Z,25.38
2023-08-05T21:14:13.378Z,25.50
2023-08-05T21:16:47.134Z,25.32
2023-08-05T21:19:34.829Z,25.39
2023-08-05T21:22:25.278Z,25.34
2023-08-05T21:25:01.503Z,25.22
2023-08-05T21:27:36.653Z,25.19
2023-08-05T21:30:12.906Z,25.20
2023-08-05T21:32:46.751Z,25.26
2023-08-05T21:35:20.505Z,25.32
2023-08-05T21:37:54.026Z,25.35
2023-08-05T21:40:47.762Z,25.40
2023-08-05T21:43:22.324Z,25.19
2023-08-05T21:45:57.752Z,25.13
2023-08-05T21:48:32.277Z,25.12
2023-08-05T21:51:10.240Z,25.18
2023-08-05T21:53:43.640Z,25.19
2023-08-05T21:56:31.619Z,25.29
2023-08-05T21:59:05.344Z,25.17
2023-08-05T22:01:40.643Z,25.13
2023-08-05T22:04:15.134Z,25.05
2023-08-05T22:06:49.259Z,24.95
2023-08-05T22:09:22.789Z,24.89
2023-08-05T22:11:56.280Z,24.87
2023-08-05T22:14:30.423Z,24.86
2023-08-05T22:17:17.970Z,24.94
2023-08-05T22:19:51.810Z,24.83
2023-08-05T22:22:26.102Z,24.82
2023-08-05T22:24:59.699Z,24.84
2023-08-05T22:27:34.957Z,24.81
2023-08-05T22:30:10.554Z,24.76
2023-08-05T22:32:44.069Z,24.70
2023-08-05T22:35:17.698Z,24.65
2023-08-05T22:37:51.210Z,24.62
2023-08-05T22:40:24.841Z,24.61
2023-08-05T22:42:58.530Z,24.61
2023-08-05T22:45:33.300Z,24.61
2023-08-05T22:48:07.547Z,24.60
2023-08-05T22:50:43.811Z,24.58
2023-08-05T22:53:17.660Z,24.57
2023-08-05T22:55:51.506Z,24.57
2023-08-05T22:58:25.407Z,24.54
2023-08-05T23:01:03.901Z,24.54
2023-08-05T23:03:37.794Z,24.51
2023-08-05T23:06:18.091Z,24.49
2023-08-05T23:08:52.447Z,24.46
2023-08-05T23:11:26.538Z,24.39
2023-08-05T23:14:14.434Z,24.47
2023-08-05T23:16:48.173Z,24.35
2023-08-05T23:19:21.787Z,24.31
2023-08-05T23:21:55.365Z,24.29
2023-08-05T23:24:31.552Z,24.29
2023-08-05T23:27:13.158Z,24.28
2023-08-05T23:29:53.313Z,24.26
2023-08-05T23:32:38.653Z,24.19
2023-08-05T23:35:15.911Z,24.14
2023-08-05T23:38:05.791Z,24.27
2023-08-05T23:40:39.493Z,24.14
2023-08-05T23:43:15.528Z,24.13
2023-08-05T23:45:50.598Z,24.09
2023-08-05T23:48:24.332Z,24.06
2023-08-05T23:50:59.663Z,24.03
2023-08-05T23:53:36.572Z,23.97
2023-08-05T23:56:12.044Z,23.93
2023-08-05T23:58:48.003Z,23.87
